map of CDV home
CDV - Airport
Location
City:  Cordova, Alaska, United States
Name:Merle K Airport (Mudhole) Smith
ICAO:PACV
IATA:CDV
FAA LID:CDV

Details
Type:Airport (Part 139 Class I)
Use:Public/Civil
Latitude:6029'30"N (60.491778)
Longitude:14528'39"W (-145.477555)
Datum:WGS 1984
Elevation:53 ft (16 m)
Variation:17.16E (WMM2015v2 magnetic declination)
-0.28 annual change
Runways:2
Longest:7500 × 150 ft (2286 × 45.5 m), paved

Time
Time Zone:UTC-9 (DST-8)
Local Time:

Weather
METAR:PACV 041353Z 00000KT 10SM -RA OVC020 01/M01 A2998 RMK AO2 RAB50 SLP151 P0000 T00061006
TAF:PACV 041139Z 0412/0512 VRB03KT P6SM OVC025
TEMPO 0412/0416 3SM -SN BR BKN015
FM041600 VRB03KT 4SM BR SCT008 OVC040
FM042100 VRB03KT P6SM SCT035 BKN060

Related Locations
Nearby:
Farthest:FACF: 10562 mi / 16997 km
St. Francis [St. Francis Field], EC, ZA

Find:

   beyond  
but within

Other Information
Maps:
NOTAMs:
Links:
Sources:

  
  • flag of United States
  • flag of Alaska
  

Sectional Chart

Flight Planning
at skyvector.com

Satellite Image

Google Maps Satellite view

 

Copyright © 2004-2019 Karl L. Swartz. All rights reserved.
The Great Circle Mapper name and logo are trademarks of the Great Circle Mapper.
All other trademarks mentioned herein belong to their respective owners.
Please see credits for attibutions and further copyright information.

  Follow gcmap on Facebook Follow gcmap on Twitter GCmap on LinkedIn

hCard Microformat

Geo Microformat